createdAt,value
2023-05-14T00:00:47.253Z,7.00
2023-05-14T00:03:13.803Z,8.57
2023-05-14T00:05:40.338Z,7.47
2023-05-14T00:08:06.915Z,7.97
2023-05-14T00:10:33.313Z,6.97
2023-05-14T00:12:59.734Z,6.45
2023-05-14T00:15:26.164Z,6.03
2023-05-14T00:17:52.728Z,6.68
2023-05-14T00:20:19.212Z,5.95
2023-05-14T00:22:45.892Z,9.10
2023-05-14T00:25:12.279Z,6.15
2023-05-14T00:27:38.669Z,6.70
2023-05-14T00:30:05.188Z,6.07
2023-05-14T00:32:31.625Z,6.05
2023-05-14T00:34:58.077Z,6.38
2023-05-14T00:37:24.509Z,6.75
2023-05-14T00:39:50.947Z,6.90
2023-05-14T00:42:17.386Z,7.13
2023-05-14T00:44:43.828Z,8.82
2023-05-14T00:47:10.272Z,6.65
2023-05-14T00:49:36.855Z,6.95
2023-05-14T00:52:03.484Z,6.22
2023-05-14T00:54:29.861Z,6.93
2023-05-14T00:56:56.296Z,7.35
2023-05-14T00:59:22.754Z,6.57
2023-05-14T01:01:49.132Z,7.82
2023-05-14T01:04:15.853Z,10.60
2023-05-14T01:06:42.243Z,8.70
2023-05-14T01:09:08.634Z,6.22
2023-05-14T01:11:35.055Z,12.65
2023-05-14T01:14:01.530Z,7.82
2023-05-14T01:16:27.920Z,6.82
2023-05-14T01:18:54.433Z,7.28
2023-05-14T01:21:20.851Z,7.57
2023-05-14T01:23:47.258Z,7.03
2023-05-14T01:26:13.681Z,6.85
2023-05-14T01:28:40.132Z,6.80
2023-05-14T01:31:06.861Z,5.38
2023-05-14T01:33:33.264Z,8.80
2023-05-14T01:35:59.743Z,9.38
2023-05-14T01:38:26.224Z,7.13
2023-05-14T01:40:52.656Z,8.50
2023-05-14T01:43:19.141Z,7.57
2023-05-14T01:45:45.866Z,6.35
2023-05-14T01:48:12.420Z,7.13
2023-05-14T01:50:38.847Z,7.28
2023-05-14T01:53:05.304Z,6.90
2023-05-14T01:55:31.770Z,9.38
2023-05-14T01:57:58.193Z,7.85
2023-05-14T02:00:24.739Z,8.82
2023-05-14T02:02:51.465Z,7.97
2023-05-14T02:05:17.959Z,8.02
2023-05-14T02:07:44.404Z,9.02
2023-05-14T02:10:10.850Z,9.80
2023-05-14T02:12:37.246Z,6.57
2023-05-14T02:15:03.707Z,6.75
2023-05-14T02:17:30.138Z,7.18
2023-05-14T02:19:56.607Z,6.78
2023-05-14T02:22:23.036Z,6.72
2023-05-14T02:24:49.468Z,7.28
2023-05-14T02:27:15.966Z,7.70
2023-05-14T02:29:42.392Z,7.53
2023-05-14T02:32:08.849Z,6.63
2023-05-14T02:34:35.249Z,8.43
2023-05-14T02:37:01.663Z,7.32
2023-05-14T02:39:28.029Z,6.63
2023-05-14T02:41:54.430Z,6.97
2023-05-14T02:44:20.843Z,7.40
2023-05-14T02:46:47.276Z,8.10
2023-05-14T02:49:13.734Z,9.63
2023-05-14T02:51:40.171Z,8.45
2023-05-14T02:54:06.755Z,9.10
2023-05-14T02:56:33.191Z,8.63
2023-05-14T02:58:59.610Z,7.72
2023-05-14T03:01:26.398Z,6.78
2023-05-14T03:03:53.423Z,8.80
2023-05-14T03:06:19.889Z,8.27
2023-05-14T03:08:46.321Z,9.10
2023-05-14T03:11:12.770Z,9.02
2023-05-14T03:13:39.164Z,8.35
2023-05-14T03:16:05.611Z,7.75
2023-05-14T03:18:32.048Z,6.88
2023-05-14T03:20:58.517Z,6.75
2023-05-14T03:23:24.900Z,6.25
2023-05-14T03:25:51.314Z,6.65
2023-05-14T03:28:17.725Z,7.43
2023-05-14T03:30:44.320Z,7.70
2023-05-14T03:33:10.874Z,7.88
2023-05-14T03:35:37.273Z,8.75
2023-05-14T03:38:03.702Z,8.27
2023-05-14T03:40:30.148Z,7.25
2023-05-14T03:42:56.553Z,7.65
2023-05-14T03:45:22.961Z,7.82
2023-05-14T03:47:49.524Z,9.18
2023-05-14T03:50:16.012Z,7.00
2023-05-14T03:52:42.463Z,7.55
2023-05-14T03:55:08.852Z,7.03
2023-05-14T03:57:35.273Z,8.55
2023-05-14T04:00:01.727Z,9.48
2023-05-14T04:02:28.225Z,6.82
2023-05-14T04:04:54.751Z,6.10
2023-05-14T04:07:21.164Z,7.53
2023-05-14T04:09:47.644Z,6.30
2023-05-14T04:12:14.141Z,7.65
2023-05-14T04:14:40.517Z,7.50
2023-05-14T04:17:06.970Z,6.32
2023-05-14T04:19:33.366Z,5.60
2023-05-14T04:21:59.819Z,7.50
2023-05-14T04:24:26.228Z,8.77
2023-05-14T04:26:52.685Z,7.80
2023-05-14T04:29:19.114Z,7.70
2023-05-14T04:31:46.044Z,8.52
2023-05-14T04:34:12.482Z,8.45
2023-05-14T04:36:38.868Z,9.15
2023-05-14T04:39:05.263Z,8.75
2023-05-14T04:41:31.731Z,7.40
2023-05-14T04:43:58.272Z,7.07
2023-05-14T04:46:24.744Z,6.40
2023-05-14T04:48:51.201Z,7.68
2023-05-14T04:51:17.668Z,6.43
2023-05-14T04:53:44.054Z,7.88
2023-05-14T04:56:10.463Z,7.60
2023-05-14T04:58:36.960Z,8.30
2023-05-14T05:01:03.539Z,8.10
2023-05-14T05:03:30.027Z,7.05
2023-05-14T05:05:56.405Z,7.68
2023-05-14T05:08:22.786Z,7.55
2023-05-14T05:10:49.252Z,7.85
2023-05-14T05:13:15.957Z,9.23
2023-05-14T05:15:42.399Z,11.02
2023-05-14T05:18:08.814Z,10.45
2023-05-14T05:20:35.218Z,8.85
2023-05-14T05:23:01.623Z,8.20
2023-05-14T05:25:28.086Z,8.23
2023-05-14T05:27:54.474Z,8.48
2023-05-14T05:30:20.863Z,8.88
2023-05-14T05:32:47.302Z,7.38
2023-05-14T05:35:13.726Z,6.85
2023-05-14T05:37:40.143Z,8.30
2023-05-14T05:40:06.895Z,11.57
2023-05-14T05:42:33.339Z,8.10
2023-05-14T05:44:59.793Z,8.73
2023-05-14T05:47:26.312Z,8.85
2023-05-14T05:49:52.772Z,7.25
2023-05-14T05:52:19.146Z,8.18
2023-05-14T05:54:45.704Z,9.57
2023-05-14T05:57:12.133Z,8.25
2023-05-14T05:59:38.540Z,8.00
2023-05-14T06:02:05.020Z,9.43
2023-05-14T06:04:31.524Z,10.35
2023-05-14T06:06:57.954Z,7.68
2023-05-14T06:09:24.412Z,10.85
2023-05-14T06:11:50.781Z,8.60
2023-05-14T06:14:17.171Z,10.27
2023-05-14T06:16:43.583Z,10.65
2023-05-14T06:19:10.077Z,9.23
2023-05-14T06:21:36.929Z,9.82
2023-05-14T06:24:03.514Z,9.45
2023-05-14T06:26:29.973Z,11.55
2023-05-14T06:28:56.387Z,13.32
2023-05-14T06:31:22.868Z,11.32
2023-05-14T06:33:49.277Z,12.90
2023-05-14T06:36:15.998Z,11.00
2023-05-14T06:38:42.405Z,10.05
2023-05-14T06:41:08.797Z,10.68
2023-05-14T06:43:35.169Z,11.10
2023-05-14T06:46:01.586Z,10.98
2023-05-14T06:48:28.132Z,9.68
2023-05-14T06:50:54.608Z,11.00
2023-05-14T06:53:21.015Z,12.77
2023-05-14T06:55:47.482Z,11.77
2023-05-14T06:58:13.853Z,11.63
2023-05-14T07:00:40.234Z,11.07
2023-05-14T07:03:06.990Z,10.20
2023-05-14T07:05:33.442Z,11.63
2023-05-14T07:07:59.874Z,9.77
2023-05-14T07:10:26.429Z,8.85
2023-05-14T07:12:52.970Z,9.02
2023-05-14T07:15:19.446Z,8.10
2023-05-14T07:17:46.116Z,11.23
2023-05-14T07:20:12.582Z,8.80
2023-05-14T07:22:39.046Z,8.85
2023-05-14T07:25:05.545Z,6.93
2023-05-14T07:27:31.946Z,8.95
2023-05-14T07:29:58.407Z,8.50
2023-05-14T07:32:25.020Z,9.75
2023-05-14T07:34:51.637Z,8.23
2023-05-14T07:37:18.065Z,8.75
2023-05-14T07:39:44.492Z,10.90
2023-05-14T07:42:11.675Z,9.55
2023-05-14T07:44:40.105Z,9.05
2023-05-14T07:47:06.956Z,7.55
2023-05-14T07:49:33.447Z,8.63
2023-05-14T07:51:59.860Z,8.95
2023-05-14T07:54:26.236Z,10.15
2023-05-14T07:56:52.669Z,9.02
2023-05-14T07:59:19.066Z,9.95
2023-05-14T08:01:45.596Z,9.23
2023-05-14T08:04:12.301Z,7.68
2023-05-14T08:06:38.815Z,6.72
2023-05-14T08:09:05.268Z,6.70
2023-05-14T08:11:31.672Z,7.20
2023-05-14T08:13:58.124Z,7.38
2023-05-14T08:16:24.608Z,8.98
2023-05-14T08:18:51.140Z,8.90
2023-05-14T08:21:17.542Z,7.72
2023-05-14T08:23:43.961Z,8.65
2023-05-14T08:26:10.429Z,9.10
2023-05-14T08:28:36.964Z,9.82
2023-05-14T08:31:03.517Z,8.38
2023-05-14T08:33:29.914Z,10.48
2023-05-14T08:35:56.364Z,8.05
2023-05-14T08:38:22.840Z,7.60
2023-05-14T08:40:49.286Z,7.90
2023-05-14T08:43:15.825Z,8.38
2023-05-14T08:45:42.271Z,7.47
2023-05-14T08:48:08.847Z,7.15
2023-05-14T08:50:35.577Z,6.57
2023-05-14T08:53:02.050Z,7.90
2023-05-14T08:55:28.478Z,6.53
2023-05-14T08:57:54.850Z,6.25
2023-05-14T09:00:21.328Z,6.32
2023-05-14T09:02:47.989Z,6.60
2023-05-14T09:05:14.414Z,6.38
2023-05-14T09:07:40.819Z,6.97
2023-05-14T09:10:07.320Z,7.57
2023-05-14T09:12:33.775Z,6.32
2023-05-14T09:15:00.233Z,5.45
2023-05-14T09:17:26.713Z,6.45
2023-05-14T09:19:53.348Z,6.35
2023-05-14T09:22:20.930Z,8.73
2023-05-14T09:24:47.382Z,8.10
2023-05-14T09:27:13.831Z,5.68
2023-05-14T09:29:40.250Z,6.00
2023-05-14T09:32:07.057Z,4.90
2023-05-14T09:34:33.732Z,4.75
2023-05-14T09:37:00.211Z,6.10
2023-05-14T09:39:26.690Z,5.18
2023-05-14T09:41:53.187Z,4.60
2023-05-14T09:44:19.593Z,5.18
2023-05-14T09:46:46.274Z,5.38
2023-05-14T09:49:12.744Z,7.53
2023-05-14T09:51:39.200Z,5.82
2023-05-14T09:54:05.661Z,5.82
2023-05-14T09:56:32.083Z,4.13
2023-05-14T09:58:58.518Z,3.80
2023-05-14T10:01:24.987Z,4.55
2023-05-14T10:03:51.494Z,3.58
2023-05-14T10:06:18.006Z,3.58
2023-05-14T10:08:44.418Z,4.40
2023-05-14T10:11:10.869Z,3.53
2023-05-14T10:13:37.262Z,5.50
2023-05-14T10:16:03.666Z,5.00
2023-05-14T10:18:30.090Z,4.15
2023-05-14T10:20:56.574Z,3.83
2023-05-14T10:23:22.980Z,3.63
2023-05-14T10:25:49.443Z,4.88
2023-05-14T10:28:16.127Z,3.97
2023-05-14T10:30:42.552Z,3.05
2023-05-14T10:33:09.076Z,3.95
2023-05-14T10:35:35.483Z,3.58
2023-05-14T10:38:01.926Z,3.88
2023-05-14T10:40:28.382Z,3.55
2023-05-14T10:42:54.777Z,3.35
2023-05-14T10:45:21.245Z,5.32
2023-05-14T10:47:47.749Z,4.70
2023-05-14T10:50:14.194Z,5.45
2023-05-14T10:52:40.678Z,4.20
2023-05-14T10:55:07.134Z,4.90
2023-05-14T10:57:33.562Z,4.57
2023-05-14T11:00:00.110Z,3.35
2023-05-14T11:02:26.617Z,3.45
2023-05-14T11:04:53.076Z,4.60
2023-05-14T11:07:19.546Z,4.18
2023-05-14T11:09:46.170Z,4.25
2023-05-14T11:12:12.579Z,4.22
2023-05-14T11:14:39.011Z,4.43
2023-05-14T11:17:05.451Z,3.80
2023-05-14T11:19:31.918Z,3.45
2023-05-14T11:21:58.310Z,4.85
2023-05-14T11:24:27.020Z,4.38
2023-05-14T11:26:53.459Z,4.28
2023-05-14T11:29:19.842Z,3.58
2023-05-14T11:31:46.383Z,3.17
2023-05-14T11:34:12.870Z,5.55
2023-05-14T11:36:39.295Z,3.78
2023-05-14T11:39:05.676Z,3.83
2023-05-14T11:41:32.131Z,4.07
2023-05-14T11:43:58.643Z,7.55
2023-05-14T11:46:25.159Z,5.60
2023-05-14T11:48:51.575Z,4.95
2023-05-14T11:51:18.009Z,4.47
2023-05-14T11:53:44.491Z,4.07
2023-05-14T11:56:10.936Z,4.70
2023-05-14T11:58:37.392Z,4.35
2023-05-14T12:01:03.890Z,4.78
2023-05-14T12:03:30.482Z,3.70
2023-05-14T12:05:57.192Z,3.55
2023-05-14T12:08:23.673Z,4.03
2023-05-14T12:10:50.095Z,3.15
2023-05-14T12:13:16.515Z,3.72
2023-05-14T12:15:43.034Z,4.38
2023-05-14T12:18:22.937Z,2.75
2023-05-14T12:23:17.268Z,3.17
2023-05-14T12:25:43.646Z,3.28
2023-05-14T12:28:10.088Z,2.60
2023-05-14T12:30:36.626Z,3.03
2023-05-14T12:33:03.463Z,3.15
2023-05-14T12:35:29.866Z,2.80
2023-05-14T12:37:56.264Z,2.65
2023-05-14T12:40:22.874Z,2.63
2023-05-14T12:42:49.391Z,3.67
2023-05-14T12:45:15.769Z,3.75
2023-05-14T12:47:42.193Z,3.05
2023-05-14T12:50:08.594Z,3.20
2023-05-14T12:52:39.375Z,3.33
2023-05-14T12:57:32.724Z,4.65
2023-05-14T12:59:59.181Z,3.42
2023-05-14T13:02:25.604Z,4.00
2023-05-14T13:04:52.012Z,3.35
2023-05-14T13:07:18.433Z,3.35
2023-05-14T13:09:44.933Z,3.78
2023-05-14T13:12:11.402Z,3.53
2023-05-14T13:14:37.796Z,2.50
2023-05-14T13:17:04.254Z,5.60
2023-05-14T13:19:30.700Z,3.05
2023-05-14T13:21:57.122Z,4.47
2023-05-14T13:24:23.495Z,2.47
2023-05-14T13:26:49.929Z,1.80
2023-05-14T13:29:16.433Z,2.20
2023-05-14T13:31:42.858Z,2.15
2023-05-14T13:34:09.303Z,2.75
2023-05-14T13:36:35.734Z,5.50
2023-05-14T13:39:02.193Z,2.00
2023-05-14T13:41:28.617Z,2.30
2023-05-14T13:43:55.045Z,2.25
2023-05-14T13:46:21.520Z,2.58
2023-05-14T13:48:47.987Z,4.35
2023-05-14T13:51:14.392Z,3.58
2023-05-14T13:53:40.796Z,3.17
2023-05-14T13:56:07.245Z,2.42
2023-05-14T13:58:33.722Z,3.45
2023-05-14T14:01:00.162Z,2.15
2023-05-14T14:03:26.640Z,4.55
2023-05-14T14:05:53.030Z,2.25
2023-05-14T14:08:23.994Z,2.03
2023-05-14T14:13:17.300Z,3.97
2023-05-14T14:15:43.814Z,2.08
2023-05-14T14:18:10.311Z,2.30
2023-05-14T14:20:37.093Z,2.13
2023-05-14T14:23:03.498Z,2.40
2023-05-14T14:25:29.898Z,2.28
2023-05-14T14:27:56.395Z,2.22
2023-05-14T14:30:22.895Z,2.40
2023-05-14T14:32:49.447Z,3.30
2023-05-14T14:35:16.032Z,3.97
2023-05-14T14:37:42.393Z,2.65
2023-05-14T14:40:08.790Z,2.65
2023-05-14T14:42:35.225Z,2.42
2023-05-14T14:45:01.678Z,2.55
2023-05-14T14:47:28.173Z,3.38
2023-05-14T14:49:54.641Z,2.70
2023-05-14T14:52:21.079Z,2.10
2023-05-14T14:54:47.530Z,1.90
2023-05-14T14:57:13.970Z,3.38
2023-05-14T14:59:40.407Z,2.40
2023-05-14T15:02:07.225Z,2.80
2023-05-14T15:04:33.666Z,1.80
2023-05-14T15:07:00.150Z,2.78
2023-05-14T15:09:26.606Z,4.15
2023-05-14T15:11:53.056Z,3.65
2023-05-14T15:14:19.513Z,3.15
2023-05-14T15:16:47.675Z,2.30
2023-05-14T15:19:15.377Z,3.08
2023-05-14T15:21:41.837Z,2.67
2023-05-14T15:24:08.271Z,2.47
2023-05-14T15:26:34.733Z,3.20
2023-05-14T15:29:01.162Z,2.38
2023-05-14T15:31:27.609Z,3.65
2023-05-14T15:33:54.075Z,2.72
2023-05-14T15:36:20.488Z,2.72
2023-05-14T15:38:47.113Z,1.63
2023-05-14T15:41:13.495Z,2.47
2023-05-14T15:43:40.226Z,2.28
2023-05-14T15:46:06.688Z,3.80
2023-05-14T15:48:33.276Z,2.30
2023-05-14T15:50:59.700Z,3.17
2023-05-14T15:53:26.122Z,1.80
2023-05-14T15:55:52.553Z,2.70
2023-05-14T15:58:19.008Z,2.47
2023-05-14T16:00:45.396Z,2.17
2023-05-14T16:03:11.836Z,2.08
2023-05-14T16:05:38.372Z,2.30
2023-05-14T16:08:04.767Z,2.22
2023-05-14T16:10:31.181Z,1.75
2023-05-14T16:12:57.600Z,3.65
2023-05-14T16:15:24.023Z,2.63
2023-05-14T16:17:50.455Z,2.22
2023-05-14T16:20:16.915Z,1.88
2023-05-14T16:22:43.400Z,2.45
2023-05-14T16:25:09.862Z,2.05
2023-05-14T16:27:36.593Z,2.00
2023-05-14T16:30:03.098Z,2.33
2023-05-14T16:32:29.551Z,2.70
2023-05-14T16:34:56.049Z,2.63
2023-05-14T16:37:22.450Z,2.22
2023-05-14T16:39:48.845Z,2.17
2023-05-14T16:42:15.280Z,2.05
2023-05-14T16:44:41.695Z,2.58
2023-05-14T16:47:08.138Z,1.92
2023-05-14T16:49:34.574Z,3.90
2023-05-14T16:52:01.045Z,2.40
2023-05-14T16:54:27.481Z,2.67
2023-05-14T16:56:53.917Z,2.70
2023-05-14T16:59:20.307Z,1.98
2023-05-14T17:01:46.845Z,2.45
2023-05-14T17:04:13.341Z,2.30
2023-05-14T17:06:39.798Z,3.50
2023-05-14T17:09:06.570Z,2.15
2023-05-14T17:11:33.002Z,2.00
2023-05-14T17:13:59.408Z,2.45
2023-05-14T17:16:25.843Z,2.60
2023-05-14T17:18:52.339Z,2.70
2023-05-14T17:21:18.774Z,3.15
2023-05-14T17:23:45.153Z,2.97
2023-05-14T17:26:11.601Z,2.35
2023-05-14T17:28:38.055Z,2.50
2023-05-14T17:31:04.564Z,3.22
2023-05-14T17:33:31.130Z,2.25
2023-05-14T17:35:57.574Z,2.05
2023-05-14T17:38:24.038Z,2.58
2023-05-14T17:40:50.417Z,2.08
2023-05-14T17:43:16.868Z,3.63
2023-05-14T17:45:53.983Z,2.63
2023-05-14T17:48:21.067Z,1.98
2023-05-14T17:50:47.516Z,2.70
2023-05-14T17:53:13.943Z,2.83
2023-05-14T17:55:40.367Z,2.20
2023-05-14T17:58:06.766Z,2.17
2023-05-14T18:00:33.271Z,2.30
2023-05-14T18:02:59.850Z,3.05
2023-05-14T18:05:26.477Z,2.92
2023-05-14T18:07:52.990Z,2.55
2023-05-14T18:10:19.383Z,2.50
2023-05-14T18:12:45.823Z,4.07
2023-05-14T18:15:12.257Z,2.15
2023-05-14T18:17:38.753Z,3.33
2023-05-14T18:20:05.211Z,3.03
2023-05-14T18:22:31.668Z,4.05
2023-05-14T18:24:58.113Z,2.88
2023-05-14T18:27:24.521Z,2.22
2023-05-14T18:29:50.955Z,2.67
2023-05-14T18:32:17.423Z,2.50
2023-05-14T18:34:43.902Z,3.95
2023-05-14T18:37:10.267Z,4.07
2023-05-14T18:39:36.784Z,4.07
2023-05-14T18:42:03.382Z,6.10
2023-05-14T18:44:29.844Z,6.28
2023-05-14T18:46:56.363Z,6.05
2023-05-14T18:49:22.824Z,4.93
2023-05-14T18:51:49.353Z,9.52
2023-05-14T18:54:15.799Z,8.98
2023-05-14T18:56:42.310Z,10.30
2023-05-14T18:59:08.754Z,9.60
2023-05-14T19:01:35.170Z,8.25
2023-05-14T19:04:03.848Z,8.82
2023-05-14T19:06:31.734Z,9.10
2023-05-14T19:08:58.156Z,10.27
2023-05-14T19:11:24.590Z,9.95
2023-05-14T19:13:51.067Z,7.70
2023-05-14T19:16:17.539Z,7.93
2023-05-14T19:18:43.961Z,9.07
2023-05-14T19:21:10.368Z,8.75
2023-05-14T19:23:36.810Z,9.18
2023-05-14T19:26:03.494Z,9.32
2023-05-14T19:28:29.946Z,10.00
2023-05-14T19:30:56.359Z,9.27
2023-05-14T19:33:22.738Z,9.95
2023-05-14T19:35:49.163Z,11.63
2023-05-14T19:38:15.663Z,10.98
2023-05-14T19:40:43.744Z,11.57
2023-05-14T19:43:11.515Z,14.70
2023-05-14T19:45:37.972Z,12.98
2023-05-14T19:48:04.529Z,12.02
2023-05-14T19:50:30.991Z,14.90
2023-05-14T19:52:57.431Z,11.43
2023-05-14T19:55:24.031Z,13.15
2023-05-14T19:57:50.692Z,12.93
2023-05-14T20:00:17.146Z,16.27
2023-05-14T20:02:43.680Z,13.52
2023-05-14T20:05:10.114Z,14.25
2023-05-14T20:07:37.769Z,12.65
2023-05-14T20:10:05.376Z,13.88
2023-05-14T20:12:31.792Z,15.38
2023-05-14T20:14:58.215Z,12.90
2023-05-14T20:17:24.623Z,13.70
2023-05-14T20:19:51.113Z,15.82
2023-05-14T20:22:17.496Z,16.92
2023-05-14T20:24:43.926Z,15.73
2023-05-14T20:27:10.398Z,17.42
2023-05-14T20:29:36.844Z,15.52
2023-05-14T20:32:03.460Z,12.70
2023-05-14T20:34:29.913Z,14.70
2023-05-14T20:36:56.320Z,14.55
2023-05-14T20:39:22.739Z,14.65
2023-05-14T20:41:49.183Z,14.63
2023-05-14T20:44:16.415Z,14.80
2023-05-14T20:46:43.850Z,13.43
2023-05-14T20:49:10.327Z,12.93
2023-05-14T20:51:36.780Z,13.85
2023-05-14T20:54:03.390Z,12.52
2023-05-14T20:56:29.772Z,14.35
2023-05-14T20:58:56.189Z,14.25
2023-05-14T21:01:22.720Z,12.95
2023-05-14T21:03:49.267Z,12.95
2023-05-14T21:06:15.798Z,12.82
2023-05-14T21:08:42.181Z,14.10
2023-05-14T21:11:08.614Z,15.52
2023-05-14T21:13:35.062Z,15.20
2023-05-14T21:16:01.526Z,11.52
2023-05-14T21:18:28.066Z,10.82
2023-05-14T21:20:54.566Z,10.52
2023-05-14T21:23:20.964Z,11.77
2023-05-14T21:25:47.400Z,11.73
2023-05-14T21:28:13.855Z,11.90
2023-05-14T21:30:40.320Z,10.57
2023-05-14T21:33:06.799Z,12.55
2023-05-14T21:35:33.244Z,11.95
2023-05-14T21:37:59.696Z,11.23
2023-05-14T21:40:26.154Z,11.18
2023-05-14T21:42:52.602Z,11.07
2023-05-14T21:45:19.413Z,9.90
2023-05-14T21:47:46.641Z,10.30
2023-05-14T21:50:13.136Z,10.30
2023-05-14T21:52:39.598Z,14.82
2023-05-14T21:55:06.025Z,12.02
2023-05-14T21:57:34.559Z,12.85
2023-05-14T22:00:01.191Z,14.98
2023-05-14T22:02:27.581Z,12.57
2023-05-14T22:04:54.029Z,13.20
2023-05-14T22:07:20.494Z,12.70
2023-05-14T22:09:46.969Z,12.02
2023-05-14T22:12:13.407Z,12.05
2023-05-14T22:14:39.852Z,12.60
2023-05-14T22:17:06.434Z,13.30
2023-05-14T22:19:33.012Z,12.07
2023-05-14T22:21:59.472Z,10.85
2023-05-14T22:24:25.941Z,12.88
2023-05-14T22:26:52.404Z,13.05
2023-05-14T22:29:18.788Z,12.35
2023-05-14T22:31:45.262Z,13.52
2023-05-14T22:34:11.859Z,15.52
2023-05-14T22:36:38.239Z,14.55
2023-05-14T22:39:04.712Z,13.02
2023-05-14T22:41:31.173Z,10.45
2023-05-14T22:43:57.642Z,12.50
2023-05-14T22:46:24.150Z,10.68
2023-05-14T22:48:50.564Z,12.52
2023-05-14T22:51:17.028Z,9.88
2023-05-14T22:53:43.434Z,11.82
2023-05-14T22:56:09.817Z,10.50
2023-05-14T22:58:36.208Z,10.93
2023-05-14T23:01:02.649Z,10.05
2023-05-14T23:03:29.115Z,10.57
2023-05-14T23:05:55.585Z,10.13
2023-05-14T23:08:21.999Z,10.57
2023-05-14T23:38:10.946Z,13.48
2023-05-14T23:40:37.728Z,12.10
2023-05-14T23:43:04.221Z,12.77
2023-05-14T23:45:30.656Z,13.05
2023-05-14T23:47:57.064Z,12.88
2023-05-14T23:50:23.545Z,11.45
2023-05-14T23:52:49.992Z,12.75
2023-05-14T23:55:16.499Z,11.90
2023-05-14T23:57:42.931Z,13.10
